Time;durP1;ratioP1;P1;durP2;ratioP2;P2;SDS_P1;SDS_P2;PMS_P1;PMS_P2;Temp;Humidity;BMP_temperature;BMP_pressure;BME280_temperature;BME280_humidity;BME280_pressure;Samples;Min_cycle;Max_cycle;Signal;HPM_P1;HPM_P2
2022/10/02 00:00:23;;;;;;;1.05;0.95;;;14.50;99.90;;;;;;5035707;28;20029;-70
2022/10/02 00:03:00;;;;;;;1.52;0.60;;;14.40;99.90;;;;;;5035288;28;20033;-70
2022/10/02 00:05:32;;;;;;;0.68;0.65;;;14.40;99.90;;;;;;5035642;28;20389;-71
2022/10/02 00:08:04;;;;;;;0.77;0.57;;;14.40;99.90;;;;;;5035655;28;20425;-70
2022/10/02 00:10:40;;;;;;;0.57;0.52;;;14.40;99.90;;;;;;5035549;28;20025;-71
2022/10/02 00:13:10;;;;;;;1.45;0.50;;;14.40;99.90;;;;;;5035087;28;20482;-70
2022/10/02 00:15:39;;;;;;;0.60;0.60;;;14.40;99.90;;;;;;5035311;28;20040;-71
2022/10/02 00:18:14;;;;;;;0.57;0.57;;;14.40;99.90;;;;;;5035466;28;20376;-70
2022/10/02 00:20:52;;;;;;;0.60;0.50;;;14.40;99.90;;;;;;5035002;28;20026;-69
2022/10/02 00:23:39;;;;;;;5.20;0.80;;;14.40;99.90;;;;;;5035018;28;20486;-70
2022/10/02 00:26:22;;;;;;;1.58;0.68;;;14.40;99.90;;;;;;5034011;28;20083;-70
2022/10/02 00:29:09;;;;;;;2.05;0.73;;;14.30;99.90;;;;;;5034861;28;20116;-71
2022/10/02 00:31:52;;;;;;;1.00;0.65;;;14.30;99.90;;;;;;5034829;28;20041;-71
2022/10/02 00:34:26;;;;;;;1.15;0.60;;;14.30;99.90;;;;;;5035147;28;20091;-70
2022/10/02 00:37:27;;;;;;;0.40;0.40;;;14.30;99.90;;;;;;5034680;28;20029;-70
2022/10/02 00:40:12;;;;;;;0.95;0.57;;;14.30;99.90;;;;;;5033330;28;20103;-70
2022/10/02 00:43:02;;;;;;;0.60;0.52;;;14.30;99.90;;;;;;5034961;28;20026;-70
2022/10/02 00:46:01;;;;;;;0.50;0.50;;;14.30;99.90;;;;;;5034936;28;20484;-71
2022/10/02 00:48:30;;;;;;;2.13;0.50;;;14.30;99.90;;;;;;5034866;28;20072;-71
2022/10/02 00:51:26;;;;;;;1.50;0.60;;;14.30;99.90;;;;;;5034443;28;20071;-71
2022/10/02 00:54:01;;;;;;;0.85;0.60;;;14.30;99.90;;;;;;5034300;28;20065;-72
2022/10/02 00:56:56;;;;;;;1.55;0.65;;;14.30;99.90;;;;;;5034690;28;20072;-70
2022/10/02 00:59:40;;;;;;;2.17;0.75;;;14.30;99.90;;;;;;5034328;28;20021;-71
2022/10/02 01:02:29;;;;;;;0.85;0.50;;;14.30;99.90;;;;;;5034607;28;20037;-71
2022/10/02 01:04:56;;;;;;;0.60;0.60;;;14.30;99.90;;;;;;5033878;28;20382;-71
2022/10/02 01:07:22;;;;;;;0.40;0.40;;;14.30;99.90;;;;;;5034662;28;20029;-71
2022/10/02 01:09:48;;;;;;;0.50;0.50;;;14.30;99.90;;;;;;5034395;28;20025;-71
2022/10/02 01:12:13;;;;;;;0.55;0.50;;;14.30;99.90;;;;;;5034528;28;20025;-71
2022/10/02 01:14:40;;;;;;;0.30;0.30;;;14.30;99.90;;;;;;5033939;28;20481;-72
2022/10/02 01:17:26;;;;;;;1.00;0.40;;;14.30;99.90;;;;;;5048024;28;20166;-71
2022/10/02 01:19:53;;;;;;;0.50;0.50;;;14.20;99.90;;;;;;5053852;28;20040;-71
2022/10/02 01:22:48;;;;;;;0.47;0.47;;;14.20;99.90;;;;;;5053809;28;20039;-71
2022/10/02 01:25:14;;;;;;;0.82;0.50;;;14.20;99.90;;;;;;5053888;28;20469;-70
2022/10/02 01:27:40;;;;;;;0.80;0.60;;;14.20;99.90;;;;;;5053316;28;20025;-71
2022/10/02 01:30:10;;;;;;;0.50;0.50;;;14.20;99.90;;;;;;5052728;28;20028;-71
2022/10/02 01:32:42;;;;;;;0.55;0.40;;;14.20;99.90;;;;;;5054051;28;20440;-70
2022/10/02 01:35:09;;;;;;;0.50;0.50;;;14.20;99.90;;;;;;5053558;28;20393;-71
2022/10/02 01:37:38;;;;;;;0.30;0.30;;;14.20;99.90;;;;;;5054063;28;20029;-71
2022/10/02 01:40:20;;;;;;;0.40;0.32;;;14.10;99.90;;;;;;5053404;28;20493;-71
2022/10/02 01:42:46;;;;;;;1.33;0.60;;;14.20;99.90;;;;;;5053549;28;20033;-71
2022/10/02 01:45:11;;;;;;;0.77;0.30;;;14.10;99.90;;;;;;5053504;28;20051;-70
2022/10/02 01:48:10;;;;;;;0.20;0.20;;;14.10;99.90;;;;;;5053952;28;20029;-70
2022/10/02 01:51:10;;;;;;;1.25;0.47;;;14.10;99.90;;;;;;5050955;28;20034;-71
2022/10/02 01:54:04;;;;;;;0.50;0.50;;;14.10;99.90;;;;;;5051994;28;20068;-71
2022/10/02 01:56:44;;;;;;;1.10;0.60;;;14.10;99.90;;;;;;5053562;28;20025;-71
2022/10/02 01:59:10;;;;;;;1.42;0.50;;;14.00;99.90;;;;;;5053165;28;20384;-71
2022/10/02 02:02:11;;;;;;;1.98;0.65;;;14.10;99.90;;;;;;5053413;28;20086;-71
2022/10/02 02:04:46;;;;;;;0.40;0.40;;;14.10;99.90;;;;;;5051915;28;20045;-71
2022/10/02 02:07:24;;;;;;;0.47;0.47;;;14.00;99.90;;;;;;5053353;28;20032;-71
2022/10/02 02:09:58;;;;;;;0.98;0.50;;;14.00;99.90;;;;;;5052154;28;20036;-71
2022/10/02 02:12:52;;;;;;;0.50;0.50;;;14.00;99.90;;;;;;5053211;28;20032;-71
2022/10/02 02:15:32;;;;;;;0.40;0.38;;;14.00;99.90;;;;;;5053321;28;20029;-71
2022/10/02 02:18:10;;;;;;;0.40;0.40;;;14.00;99.90;;;;;;5052824;28;20104;-71
2022/10/02 02:20:45;;;;;;;0.50;0.50;;;13.90;99.90;;;;;;5052988;28;20029;-71
2022/10/02 02:23:16;;;;;;;1.65;0.68;;;14.00;99.90;;;;;;5052781;28;20025;-70
2022/10/02 02:25:46;;;;;;;1.20;0.50;;;13.90;99.90;;;;;;5053039;28;20033;-71
2022/10/02 02:28:16;;;;;;;2.13;0.50;;;13.90;99.90;;;;;;5052977;28;20062;-70
2022/10/02 02:30:47;;;;;;;1.13;0.80;;;13.90;99.90;;;;;;5052640;28;20063;-71
2022/10/02 02:33:38;;;;;;;1.58;0.40;;;13.90;99.90;;;;;;5052597;28;20037;-71
2022/10/02 02:36:12;;;;;;;2.30;0.50;;;13.90;99.90;;;;;;5049215;28;20067;-70
2022/10/02 02:38:49;;;;;;;0.90;0.40;;;13.90;99.90;;;;;;5052973;28;20021;-70
2022/10/02 02:41:25;;;;;;;0.50;0.45;;;13.90;99.90;;;;;;5052630;28;20111;-70
2022/10/02 02:44:05;;;;;;;0.80;0.70;;;13.80;99.90;;;;;;5052267;28;20362;-70
2022/10/02 02:49:48;;;;;;;0.47;0.47;;;13.80;99.90;;;;;;5052459;28;20043;-70
2022/10/02 02:52:32;;;;;;;1.00;0.60;;;13.80;99.90;;;;;;5052055;28;20044;-70
2022/10/02 02:55:18;;;;;;;0.95;0.30;;;13.70;99.90;;;;;;5052627;28;20048;-71
2022/10/02 02:58:21;;;;;;;1.02;0.40;;;13.80;99.90;;;;;;5052472;28;20104;-70
2022/10/02 03:00:47;;;;;;;1.75;0.45;;;13.70;99.90;;;;;;5052181;28;20094;-69
2022/10/02 03:03:13;;;;;;;0.75;0.40;;;13.70;99.90;;;;;;5052884;28;20120;-70
2022/10/02 03:05:45;;;;;;;0.60;0.40;;;13.70;99.90;;;;;;5052513;28;20025;-70
2022/10/02 03:08:37;;;;;;;1.17;0.50;;;13.70;99.90;;;;;;5053015;28;20032;-69
2022/10/02 03:11:08;;;;;;;2.45;0.50;;;13.60;99.90;;;;;;5050220;28;20041;-71
2022/10/02 03:13:49;;;;;;;1.20;0.50;;;13.70;99.90;;;;;;5052694;28;20124;-71
2022/10/02 03:16:48;;;;;;;0.57;0.40;;;13.60;99.90;;;;;;5052557;28;20481;-71
2022/10/02 03:19:57;;;;;;;0.40;0.40;;;13.60;99.90;;;;;;5052426;28;20312;-71
2022/10/02 03:22:40;;;;;;;1.00;0.60;;;13.60;99.90;;;;;;5033156;28;20413;-71
2022/10/02 03:25:30;;;;;;;0.93;0.40;;;13.50;99.90;;;;;;5055953;28;20120;-71
2022/10/02 03:28:16;;;;;;;0.40;0.40;;;13.50;99.90;;;;;;5055949;28;20029;-71
2022/10/02 03:30:42;;;;;;;1.65;0.52;;;13.50;99.90;;;;;;5056254;28;20056;-71
2022/10/02 03:33:11;;;;;;;0.50;0.38;;;13.50;99.90;;;;;;5055880;28;20120;-71
2022/10/02 03:35:38;;;;;;;0.70;0.50;;;13.50;99.90;;;;;;5056172;28;20039;-71
2022/10/02 03:38:06;;;;;;;2.38;0.52;;;13.40;99.90;;;;;;5055806;28;20115;-72
2022/10/02 03:40:32;;;;;;;3.17;0.40;;;13.40;99.90;;;;;;5055556;28;20025;-70
2022/10/02 03:42:59;;;;;;;1.05;0.70;;;13.40;99.90;;;;;;5055654;28;20047;-70
2022/10/02 03:45:25;;;;;;;0.40;0.40;;;13.40;99.90;;;;;;5056058;28;20035;-70
2022/10/02 03:47:51;;;;;;;0.40;0.40;;;13.40;99.90;;;;;;5055556;28;20107;-70
2022/10/02 03:50:16;;;;;;;0.50;0.50;;;13.30;99.90;;;;;;5055971;28;20109;-70
2022/10/02 03:52:43;;;;;;;1.00;0.40;;;13.30;99.90;;;;;;5055743;28;20029;-70
2022/10/02 03:55:22;;;;;;;0.50;0.30;;;13.30;99.90;;;;;;5055396;28;20033;-70
2022/10/02 03:57:48;;;;;;;6.40;1.65;;;13.30;99.90;;;;;;5055947;28;20025;-71
2022/10/02 04:00:28;;;;;;;0.60;0.50;;;13.30;99.90;;;;;;5055260;28;20426;-71
2022/10/02 04:03:01;;;;;;;1.60;0.52;;;13.30;99.90;;;;;;5055101;28;20036;-71
2022/10/02 04:05:38;;;;;;;1.70;0.52;;;13.30;99.90;;;;;;5055579;28;20116;-70
2022/10/02 04:08:36;;;;;;;1.05;0.43;;;13.20;99.90;;;;;;5055146;28;20377;-71
2022/10/02 04:11:17;;;;;;;1.20;0.50;;;13.20;99.90;;;;;;5053509;28;20036;-71
2022/10/02 04:14:18;;;;;;;2.72;0.40;;;13.20;99.90;;;;;;5055548;28;20038;-70
2022/10/02 04:16:56;;;;;;;;;;;13.20;99.90;;;;;;5043938;28;20044;-71
2022/10/02 04:19:25;;;;;;;2.28;0.65;;;13.20;99.90;;;;;;5055456;28;19909;-71
2022/10/02 04:22:01;;;;;;;0.90;0.40;;;13.20;99.90;;;;;;5054852;28;20024;-72
2022/10/02 04:24:43;;;;;;;2.30;0.88;;;13.10;99.90;;;;;;5055274;28;20071;-70
2022/10/02 04:27:28;;;;;;;0.60;0.60;;;13.10;99.90;;;;;;5054621;28;20469;-71
2022/10/02 04:30:01;;;;;;;1.27;0.50;;;13.10;99.90;;;;;;5053643;28;20104;-71
2022/10/02 04:32:35;;;;;;;0.32;0.32;;;13.10;99.90;;;;;;5054847;28;20048;-70
2022/10/02 04:35:05;;;;;;;0.63;0.47;;;13.10;99.90;;;;;;5054274;28;20025;-70
2022/10/02 04:37:49;;;;;;;0.90;0.52;;;13.10;99.90;;;;;;5055192;28;20113;-70
2022/10/02 04:40:33;;;;;;;2.22;0.35;;;13.10;99.90;;;;;;5054717;28;20484;-70
2022/10/02 04:43:08;;;;;;;0.40;0.40;;;13.10;99.90;;;;;;5054611;28;20116;-70
2022/10/02 04:46:08;;;;;;;1.02;0.50;;;13.00;99.90;;;;;;5054812;28;20082;-70
2022/10/02 04:48:45;;;;;;;2.13;0.50;;;13.00;99.90;;;;;;5054690;28;20040;-70
2022/10/02 04:51:39;;;;;;;0.52;0.50;;;13.00;99.90;;;;;;5054468;28;20036;-69
2022/10/02 04:54:33;;;;;;;0.65;0.47;;;13.00;99.90;;;;;;5054043;28;20487;-69
2022/10/02 04:57:16;;;;;;;0.57;0.40;;;13.00;99.90;;;;;;5054312;28;20112;-70
2022/10/02 04:59:58;;;;;;;0.50;0.50;;;13.00;99.90;;;;;;5054377;28;20123;-70
2022/10/02 05:02:43;;;;;;;1.88;0.60;;;13.00;99.90;;;;;;5054695;28;20052;-69
2022/10/02 05:05:26;;;;;;;0.43;0.40;;;13.00;99.90;;;;;;5054303;28;20033;-70
2022/10/02 05:08:18;;;;;;;1.73;0.55;;;13.00;99.90;;;;;;5054253;28;20086;-70
2022/10/02 05:10:48;;;;;;;2.35;0.63;;;13.00;99.90;;;;;;5054526;28;20041;-71
2022/10/02 05:13:17;;;;;;;1.95;0.65;;;13.00;99.90;;;;;;5053694;28;20033;-70
2022/10/02 05:16:03;;;;;;;4.25;0.75;;;13.00;99.90;;;;;;5054196;28;20389;-70
2022/10/02 05:18:47;;;;;;;2.85;0.65;;;13.00;99.90;;;;;;5053923;28;20390;-71
2022/10/02 05:21:26;;;;;;;2.33;0.60;;;13.00;99.90;;;;;;5053889;28;20044;-71
2022/10/02 05:24:22;;;;;;;0.77;0.50;;;13.00;99.90;;;;;;5054280;28;20033;-70
2022/10/02 05:26:53;;;;;;;1.13;0.57;;;13.00;99.90;;;;;;5054263;28;20056;-71
2022/10/02 05:29:48;;;;;;;0.73;0.55;;;13.00;99.90;;;;;;5053580;28;20099;-71
2022/10/02 05:32:16;;;;;;;0.90;0.50;;;13.00;99.90;;;;;;5053715;28;20053;-71
2022/10/02 05:34:57;;;;;;;1.17;0.50;;;13.00;99.90;;;;;;5054174;28;20361;-71
2022/10/02 05:37:34;;;;;;;0.70;0.47;;;13.10;99.90;;;;;;5053758;28;20451;-71
2022/10/02 05:40:24;;;;;;;1.85;0.52;;;13.10;99.90;;;;;;5053248;28;20469;-72
2022/10/02 05:43:16;;;;;;;5.18;0.95;;;13.10;99.90;;;;;;5053807;28;20044;-71
2022/10/02 05:45:51;;;;;;;0.40;0.40;;;13.10;99.90;;;;;;5053141;28;20021;-71
2022/10/02 05:48:23;;;;;;;0.93;0.70;;;13.20;99.90;;;;;;5053113;28;20025;-71
2022/10/02 05:51:06;;;;;;;1.00;0.55;;;13.20;99.90;;;;;;5053788;28;20047;-71
2022/10/02 05:53:48;;;;;;;2.50;0.50;;;13.30;99.70;;;;;;5053710;28;20036;-71
2022/10/02 05:56:17;;;;;;;;;;;13.30;99.20;;;;;;5053561;28;20083;-71
2022/10/02 05:59:17;;;;;;;0.70;0.50;;;13.40;99.10;;;;;;5053655;28;19909;-71
2022/10/02 06:01:46;;;;;;;1.63;0.75;;;13.50;98.90;;;;;;5053572;28;20082;-71
2022/10/02 06:04:30;;;;;;;3.53;0.60;;;13.50;98.70;;;;;;5052761;28;20079;-71
2022/10/02 06:07:02;;;;;;;1.58;0.80;;;13.60;98.30;;;;;;5053136;28;20017;-71
2022/10/02 06:09:52;;;;;;;1.20;0.50;;;13.60;97.90;;;;;;5053352;28;20439;-71
2022/10/02 06:12:25;;;;;;;1.00;0.60;;;13.70;97.60;;;;;;5052937;28;20091;-72
2022/10/02 06:15:21;;;;;;;1.35;0.80;;;13.70;97.40;;;;;;5052891;28;20501;-70
2022/10/02 06:17:58;;;;;;;3.60;0.90;;;13.80;97.40;;;;;;5053627;28;20118;-71
2022/10/02 06:20:32;;;;;;;0.60;0.60;;;13.80;97.30;;;;;;5052796;28;20025;-71
2022/10/02 06:23:25;;;;;;;1.10;0.75;;;13.90;97.40;;;;;;5053244;28;20099;-71
2022/10/02 06:26:15;;;;;;;1.98;0.82;;;14.00;97.30;;;;;;5053230;28;20150;-70
2022/10/02 06:28:53;;;;;;;1.23;0.73;;;14.20;96.80;;;;;;5053172;28;20063;-70
2022/10/02 06:31:44;;;;;;;2.70;0.80;;;14.30;96.30;;;;;;5052783;28;20049;-71
2022/10/02 06:34:12;;;;;;;2.50;1.35;;;14.40;96.10;;;;;;5052273;28;20465;-72
2022/10/02 06:36:47;;;;;;;3.38;0.60;;;14.50;95.90;;;;;;5053055;28;20025;-71
2022/10/02 06:39:50;;;;;;;0.70;0.60;;;14.60;95.80;;;;;;5052393;28;20104;-71
2022/10/02 06:42:39;;;;;;;3.42;0.93;;;14.70;96.00;;;;;;5030115;28;20029;-70
2022/10/02 06:45:11;;;;;;;6.15;1.10;;;14.70;95.60;;;;;;5030625;28;20033;-71
2022/10/02 06:48:02;;;;;;;8.05;0.73;;;14.80;95.60;;;;;;5031058;28;20500;-71
2022/10/02 06:50:54;;;;;;;3.45;0.80;;;14.90;95.50;;;;;;5031177;28;20029;-71
2022/10/02 06:53:53;;;;;;;1.83;1.00;;;15.00;95.20;;;;;;5030327;28;20037;-71
2022/10/02 06:56:40;;;;;;;1.65;0.85;;;15.10;95.20;;;;;;5029942;28;20026;-71
2022/10/02 06:59:23;;;;;;;2.47;0.70;;;15.20;95.40;;;;;;5030392;28;20025;-72
2022/10/02 07:02:08;;;;;;;2.97;0.70;;;15.30;95.10;;;;;;5030488;28;20044;-71
2022/10/02 07:04:44;;;;;;;1.65;0.73;;;15.40;94.80;;;;;;5030674;28;20188;-71
2022/10/02 07:07:44;;;;;;;1.40;0.70;;;15.60;94.50;;;;;;5029859;28;20041;-70
2022/10/02 07:10:40;;;;;;;1.38;0.70;;;15.60;94.10;;;;;;5029786;28;20117;-71
2022/10/02 07:13:14;;;;;;;3.75;1.02;;;15.80;94.50;;;;;;5041640;28;20037;-72
2022/10/02 07:16:06;;;;;;;5.50;1.55;;;16.00;94.70;;;;;;5053393;28;20060;-71
2022/10/02 07:19:07;;;;;;;2.17;1.10;;;16.30;94.10;;;;;;5052882;28;20458;-71
2022/10/02 07:21:47;;;;;;;2.83;0.60;;;16.60;93.60;;;;;;5051925;28;20027;-72
2022/10/02 07:24:40;;;;;;;2.97;0.82;;;16.80;92.80;;;;;;5052640;28;20126;-72
2022/10/02 07:27:22;;;;;;;2.42;0.73;;;16.90;92.40;;;;;;5052252;28;20025;-71
2022/10/02 07:30:10;;;;;;;1.45;0.80;;;17.10;92.20;;;;;;5052420;28;20055;-70
2022/10/02 07:32:51;;;;;;;2.25;0.70;;;17.10;91.70;;;;;;5051846;28;20081;-71
2022/10/02 07:35:35;;;;;;;3.03;0.63;;;17.20;91.60;;;;;;5051943;28;20462;-72
2022/10/02 07:38:22;;;;;;;3.38;0.95;;;17.20;91.60;;;;;;5052574;28;20025;-72
2022/10/02 07:40:50;;;;;;;1.75;0.82;;;17.10;92.00;;;;;;5052009;28;20031;-72
2022/10/02 07:43:44;;;;;;;1.33;0.88;;;17.20;91.80;;;;;;5051863;28;20029;-72
2022/10/02 07:46:18;;;;;;;1.30;0.80;;;17.40;91.40;;;;;;5049305;28;20045;-72
2022/10/02 07:49:03;;;;;;;1.75;0.80;;;17.70;91.00;;;;;;5052214;28;20380;-72
2022/10/02 07:51:49;;;;;;;1.95;1.00;;;17.60;90.60;;;;;;5051324;28;20025;-71
2022/10/02 07:54:33;;;;;;;2.08;0.98;;;17.50;90.80;;;;;;5051420;28;20466;-71
2022/10/02 07:57:15;;;;;;;2.08;0.88;;;17.20;91.40;;;;;;5051965;28;20041;-70
2022/10/02 07:59:42;;;;;;;1.60;0.80;;;17.10;91.80;;;;;;5051100;28;20029;-71
2022/10/02 08:02:27;;;;;;;3.00;0.88;;;16.90;92.50;;;;;;5051753;28;20033;-72
2022/10/02 08:04:58;;;;;;;1.58;0.80;;;16.70;93.20;;;;;;5052275;28;20040;-70
2022/10/02 08:07:26;;;;;;;1.48;0.70;;;16.60;93.70;;;;;;5034033;28;20032;-71
2022/10/02 08:09:53;;;;;;;2.30;0.77;;;16.50;94.10;;;;;;5054524;28;20036;-72
2022/10/02 08:12:40;;;;;;;1.75;0.70;;;16.40;94.60;;;;;;5055299;28;20079;-70
2022/10/02 08:15:14;;;;;;;2.72;1.00;;;16.20;95.30;;;;;;5055753;28;20357;-71
2022/10/02 08:17:49;;;;;;;1.30;0.82;;;16.10;95.70;;;;;;5055893;28;20033;-71
2022/10/02 08:20:39;;;;;;;1.83;0.80;;;16.00;96.40;;;;;;5055139;28;20143;-71
2022/10/02 08:23:20;;;;;;;1.92;1.05;;;15.90;97.10;;;;;;5055561;28;20487;-72
2022/10/02 08:25:58;;;;;;;0.85;0.60;;;15.80;97.70;;;;;;5055584;28;20071;-71
2022/10/02 08:28:30;;;;;;;2.20;0.68;;;15.70;98.10;;;;;;5055147;28;20385;-70
2022/10/02 08:30:57;;;;;;;1.88;0.63;;;15.70;98.50;;;;;;5055173;28;20118;-72
2022/10/02 08:33:23;;;;;;;3.03;0.95;;;15.70;99.00;;;;;;5054832;28;20021;-70
2022/10/02 08:36:17;;;;;;;2.45;1.08;;;15.60;99.20;;;;;;5055301;28;20036;-71
2022/10/02 08:38:57;;;;;;;1.17;0.93;;;15.60;99.60;;;;;;5055077;28;20382;-71
2022/10/02 08:41:47;;;;;;;1.23;0.70;;;15.60;99.90;;;;;;5054863;28;20104;-72
2022/10/02 08:44:41;;;;;;;1.38;1.08;;;15.60;99.70;;;;;;5054824;28;20029;-72
2022/10/02 08:47:27;;;;;;;1.15;0.73;;;15.60;99.80;;;;;;5054669;28;20040;-73
2022/10/02 08:50:13;;;;;;;2.42;0.95;;;15.60;99.70;;;;;;5053922;28;20047;-71
2022/10/02 08:52:51;;;;;;;1.02;0.80;;;15.60;99.70;;;;;;5054551;28;20033;-72
2022/10/02 08:55:36;;;;;;;3.47;0.95;;;15.60;99.70;;;;;;5054516;28;20025;-71
2022/10/02 08:58:26;;;;;;;0.95;0.73;;;15.60;99.70;;;;;;5054644;28;20025;-71
2022/10/02 09:01:30;;;;;;;3.78;1.00;;;15.70;99.70;;;;;;5054619;28;20035;-71
2022/10/02 09:04:22;;;;;;;2.85;1.00;;;15.80;99.90;;;;;;5043292;28;20095;-71
2022/10/02 09:07:17;;;;;;;5.78;0.90;;;15.90;99.30;;;;;;5054680;28;20028;-71
2022/10/02 09:09:45;;;;;;;1.05;0.73;;;16.00;98.60;;;;;;5053900;28;20037;-71
2022/10/02 09:12:32;;;;;;;2.35;0.77;;;16.10;98.30;;;;;;5054084;28;20151;-72
2022/10/02 09:15:21;;;;;;;3.70;0.93;;;16.20;98.00;;;;;;5054536;28;20108;-72
2022/10/02 09:17:53;;;;;;;0.88;0.60;;;16.30;97.70;;;;;;5054645;28;20051;-71
2022/10/02 09:20:24;;;;;;;1.10;0.65;;;16.40;96.80;;;;;;5052204;28;20025;-70
2022/10/02 09:22:50;;;;;;;1.52;0.68;;;16.50;96.80;;;;;;5054292;28;20373;-71
2022/10/02 09:25:37;;;;;;;0.93;0.47;;;16.50;96.70;;;;;;5053948;28;20032;-71
2022/10/02 09:28:21;;;;;;;1.27;0.60;;;16.60;96.50;;;;;;5054146;28;20025;-71
2022/10/02 09:31:17;;;;;;;1.20;0.70;;;16.70;95.70;;;;;;5053878;28;20041;-71
2022/10/02 09:33:52;;;;;;;2.67;0.70;;;16.80;95.30;;;;;;5053993;28;20036;-71
2022/10/02 09:36:30;;;;;;;1.73;0.70;;;16.90;95.30;;;;;;5053459;28;20044;-72
2022/10/02 09:39:32;;;;;;;1.90;0.57;;;17.00;95.00;;;;;;5053994;28;20096;-71
2022/10/02 09:42:31;;;;;;;3.10;0.60;;;17.10;95.00;;;;;;5053699;28;20373;-71
2022/10/02 09:45:10;;;;;;;2.33;0.90;;;17.00;94.00;;;;;;5053800;28;20029;-71
2022/10/02 09:48:13;;;;;;;0.88;0.70;;;17.00;94.20;;;;;;5053591;28;20053;-71
2022/10/02 09:51:13;;;;;;;2.08;0.77;;;17.00;94.30;;;;;;5053033;28;20029;-71
2022/10/02 09:53:57;;;;;;;3.55;0.70;;;17.00;94.20;;;;;;5051832;28;20539;-72
2022/10/02 09:56:58;;;;;;;1.25;0.70;;;17.00;94.20;;;;;;5052654;28;20104;-70
2022/10/02 09:59:32;;;;;;;2.70;0.80;;;17.00;94.20;;;;;;5053264;28;20036;-72
2022/10/02 10:02:18;;;;;;;2.20;0.60;;;17.00;94.60;;;;;;5053517;28;20246;-72
2022/10/02 10:05:15;;;;;;;1.00;0.43;;;17.00;93.90;;;;;;5053416;28;20377;-73
2022/10/02 10:07:58;;;;;;;1.23;0.80;;;17.00;93.50;;;;;;5053380;28;20025;-71
2022/10/02 10:10:27;;;;;;;2.15;0.73;;;17.00;93.40;;;;;;5051786;28;20029;-72
2022/10/02 10:13:23;;;;;;;1.17;0.63;;;17.00;93.40;;;;;;5053081;28;20071;-72
2022/10/02 10:16:10;;;;;;;2.40;0.75;;;17.00;93.10;;;;;;5053330;28;20033;-71
2022/10/02 10:18:42;;;;;;;2.85;0.60;;;17.00;93.10;;;;;;5052770;28;20017;-70
2022/10/02 10:21:38;;;;;;;1.83;0.77;;;16.90;93.00;;;;;;5052785;28;20112;-71
2022/10/02 10:24:22;;;;;;;0.43;0.40;;;16.90;93.40;;;;;;5052084;28;20381;-71
2022/10/02 10:27:06;;;;;;;1.98;0.80;;;17.00;93.80;;;;;;5053386;28;20438;-72
2022/10/02 10:29:49;;;;;;;1.15;0.63;;;17.00;93.50;;;;;;5052965;28;20033;-71
2022/10/02 10:32:15;;;;;;;2.25;0.80;;;17.00;92.90;;;;;;5052502;28;20458;-71
2022/10/02 10:34:56;;;;;;;3.17;0.90;;;17.10;92.60;;;;;;5052446;28;20033;-70
2022/10/02 10:40:46;;;;;;;1.08;0.80;;;17.00;92.60;;;;;;5052364;28;20036;-74
2022/10/02 10:43:32;;;;;;;2.42;1.48;;;17.00;92.30;;;;;;5053301;28;20032;-71
2022/10/02 10:46:45;;;;;;;2.47;0.90;;;17.00;92.50;;;;;;5052962;28;20025;-72
2022/10/02 10:49:29;;;;;;;3.05;0.90;;;16.90;92.30;;;;;;5030648;28;20029;-71
2022/10/02 10:52:21;;;;;;;1.85;1.02;;;16.80;92.60;;;;;;5030566;28;20033;-71
2022/10/02 10:55:31;;;;;;;0.85;0.68;;;16.90;92.90;;;;;;5048673;28;20052;-71
2022/10/02 10:58:13;;;;;;;1.88;0.82;;;16.90;93.10;;;;;;5052472;28;20051;-70
2022/10/02 11:00:51;;;;;;;2.38;0.70;;;16.90;92.80;;;;;;5052373;28;20503;-71
2022/10/02 11:03:38;;;;;;;1.90;0.93;;;16.80;93.00;;;;;;5052335;28;20525;-72
2022/10/02 11:06:33;;;;;;;1.25;0.80;;;16.90;93.10;;;;;;5051964;28;20116;-71
2022/10/02 11:09:32;;;;;;;2.40;1.20;;;16.90;93.10;;;;;;5032703;28;20060;-71
2022/10/02 11:12:28;;;;;;;1.65;0.85;;;16.80;93.50;;;;;;5032929;28;20025;-71
2022/10/02 11:15:31;;;;;;;2.25;0.80;;;16.80;93.70;;;;;;5033943;28;20079;-71
2022/10/02 11:18:13;;;;;;;1.27;0.80;;;16.80;94.60;;;;;;5035265;28;20101;-71
2022/10/02 11:20:45;;;;;;;1.63;0.70;;;16.80;94.90;;;;;;5037141;28;20075;-71
2022/10/02 11:23:30;;;;;;;3.15;1.13;;;16.80;95.50;;;;;;5035860;28;20033;-71
2022/10/02 11:26:31;;;;;;;1.35;0.80;;;16.80;95.60;;;;;;5035663;28;20022;-72
2022/10/02 11:29:15;;;;;;;3.85;1.23;;;16.70;95.80;;;;;;5037627;28;20053;-71
2022/10/02 11:32:08;;;;;;;2.65;1.10;;;16.80;96.30;;;;;;5033494;28;20390;-72
2022/10/02 11:34:39;;;;;;;2.75;1.00;;;16.90;96.50;;;;;;5035973;28;20124;-72
2022/10/02 11:37:30;;;;;;;2.13;0.93;;;16.90;96.00;;;;;;5033770;28;20052;-71
2022/10/02 11:40:37;;;;;;;3.38;1.02;;;16.90;95.70;;;;;;5036390;28;20030;-71
2022/10/02 11:43:13;;;;;;;2.35;0.70;;;17.00;95.50;;;;;;5034585;28;20381;-70
2022/10/02 11:45:54;;;;;;;3.08;0.70;;;16.90;95.30;;;;;;5036084;28;20112;-70
2022/10/02 11:48:25;;;;;;;2.17;0.80;;;16.90;95.40;;;;;;5036411;28;20096;-71
2022/10/02 11:51:00;;;;;;;;;;;16.90;95.30;;;;;;5036186;28;20385;-70
2022/10/02 11:54:10;;;;;;;1.52;0.77;;;16.90;95.60;;;;;;5035810;28;19920;-71
2022/10/02 11:57:00;;;;;;;3.42;0.70;;;16.90;95.50;;;;;;5036071;28;20478;-71
2022/10/02 12:00:04;;;;;;;1.27;0.80;;;16.90;95.60;;;;;;5036064;28;20021;-73
2022/10/02 12:02:51;;;;;;;1.63;0.80;;;16.90;95.20;;;;;;5036110;28;20029;-71
2022/10/02 12:05:43;;;;;;;1.80;0.88;;;16.90;95.40;;;;;;5036356;28;20039;-72
2022/10/02 12:08:35;;;;;;;1.80;0.80;;;16.90;95.50;;;;;;5042471;28;20386;-73
2022/10/02 12:11:42;;;;;;;1.17;0.65;;;16.90;95.70;;;;;;5036231;28;20053;-72
2022/10/02 12:14:23;;;;;;;2.53;0.75;;;16.90;95.80;;;;;;5025203;28;20045;-72
2022/10/02 12:17:00;;;;;;;1.90;0.95;;;16.80;95.90;;;;;;5035084;28;20037;-72
2022/10/02 12:26:57;;;;;;;2.03;1.02;;;16.80;95.60;;;;;;5035133;28;20025;-75
2022/10/02 12:29:01;;;;;;;1.60;0.80;;;16.60;95.60;;;;;;5035180;28;20135;-73
2022/10/02 12:31:32;;;;;;;2.15;0.90;;;16.40;96.00;;;;;;5022689;28;20045;-71
2022/10/02 12:34:04;;;;;;;;;;;16.30;96.40;;;;;;5035705;28;20033;-70
2022/10/02 12:36:34;;;;;;;;;;;16.30;97.00;;;;;;5067250;28;19909;-72
2022/10/02 12:39:19;;;;;;;1.10;0.70;;;16.20;97.20;;;;;;5035430;28;19905;-70
2022/10/02 12:42:29;;;;;;;1.40;0.57;;;16.20;97.50;;;;;;5034591;28;20029;-71
2022/10/02 12:45:06;;;;;;;2.17;0.70;;;16.10;98.00;;;;;;5029111;28;20049;-70
2022/10/02 12:47:43;;;;;;;2.00;0.63;;;16.10;98.30;;;;;;5034748;28;20036;-70
2022/10/02 12:50:42;;;;;;;1.27;0.60;;;15.90;98.20;;;;;;5035130;28;20506;-70
2022/10/02 12:53:50;;;;;;;2.08;1.08;;;15.80;98.50;;;;;;5035024;28;20025;-70
2022/10/02 12:56:53;;;;;;;1.95;0.85;;;15.70;99.10;;;;;;5034701;28;20034;-70
2022/10/02 12:59:34;;;;;;;1.50;0.65;;;15.70;99.10;;;;;;5035201;28;20025;-72
2022/10/02 13:02:12;;;;;;;1.58;0.73;;;15.60;99.20;;;;;;5034843;28;20104;-71
2022/10/02 13:05:09;;;;;;;1.95;0.90;;;15.60;99.40;;;;;;5043835;28;20075;-71
2022/10/02 13:08:04;;;;;;;2.58;0.80;;;15.60;99.80;;;;;;5054102;28;20029;-69
2022/10/02 13:10:56;;;;;;;3.50;0.80;;;15.50;99.90;;;;;;5053920;28;20032;-72
2022/10/02 13:13:36;;;;;;;0.73;0.55;;;15.50;99.90;;;;;;5049931;28;20122;-71
2022/10/02 13:16:05;;;;;;;2.38;1.30;;;15.50;99.90;;;;;;5055034;28;20033;-71
2022/10/02 13:18:45;;;;;;;1.02;0.77;;;15.50;99.90;;;;;;5052681;28;20094;-71
2022/10/02 13:21:17;;;;;;;2.20;0.82;;;15.40;99.90;;;;;;5054696;28;20033;-73
2022/10/02 13:24:07;;;;;;;2.05;1.30;;;15.40;99.90;;;;;;5053553;28;20044;-70
2022/10/02 13:26:50;;;;;;;2.88;1.40;;;15.40;99.90;;;;;;5053027;28;20025;-71
2022/10/02 13:29:28;;;;;;;2.45;0.98;;;15.30;99.90;;;;;;5054323;28;20036;-72
2022/10/02 13:31:56;;;;;;;2.17;0.98;;;15.30;99.90;;;;;;5053621;28;20374;-70
2022/10/02 13:34:46;;;;;;;1.77;0.82;;;15.20;99.90;;;;;;5053754;28;20556;-70
2022/10/02 13:37:42;;;;;;;1.38;0.90;;;15.20;99.90;;;;;;5054056;28;20029;-72
2022/10/02 13:40:21;;;;;;;1.77;1.08;;;15.20;99.90;;;;;;5053927;28;20072;-71
2022/10/02 13:42:49;;;;;;;1.95;0.98;;;15.20;99.90;;;;;;5053187;28;20470;-70
2022/10/02 13:45:37;;;;;;;1.58;0.80;;;15.20;99.90;;;;;;5053939;28;20095;-71
2022/10/02 13:48:53;;;;;;;4.60;1.17;;;15.20;99.90;;;;;;5053909;28;20146;-71
2022/10/02 13:51:44;;;;;;;1.08;0.73;;;15.10;99.90;;;;;;5053879;28;20025;-70
2022/10/02 13:54:21;;;;;;;0.50;0.50;;;15.10;99.90;;;;;;5053362;28;20036;-71
2022/10/02 13:56:56;;;;;;;1.65;0.90;;;15.10;99.90;;;;;;5053269;28;20029;-72
2022/10/02 13:59:53;;;;;;;1.83;1.23;;;15.10;99.90;;;;;;5053169;28;20078;-71
2022/10/02 14:02:49;;;;;;;3.53;0.85;;;15.00;99.90;;;;;;5044209;28;20044;-71
2022/10/02 14:05:33;;;;;;;2.75;0.80;;;15.00;99.90;;;;;;5053504;28;20025;-71
2022/10/02 14:08:18;;;;;;;1.50;1.00;;;15.00;99.90;;;;;;5053229;28;20412;-71
2022/10/02 14:10:59;;;;;;;2.95;1.27;;;15.00;99.90;;;;;;5052766;28;20485;-71
2022/10/02 14:13:55;;;;;;;3.50;1.38;;;15.00;99.90;;;;;;5053351;28;20461;-71
2022/10/02 14:16:38;;;;;;;2.33;0.80;;;15.00;99.90;;;;;;5053310;28;20445;-71
2022/10/02 14:19:22;;;;;;;1.98;0.85;;;15.00;99.90;;;;;;5053473;28;20047;-71